Geneva, Texas
Current Conditions -  °F | °C
As of 9:56 AM on Monday 26 Jan 2015 (Local Time) from KAQV Reporting Station
Clear Clear  
Wind Chill: 51°   Ceiling: Unl
Heat Index: 51°   Visibility: 10mi
Dew Point: 33°   Wind: 7mph
Humidity: 50%   Direction: NA
Pressure: 30.19"   Gusts: NA
Location:  31.48°N, 93.92°W
Report Text: KAQV 261556Z AUTO VRB06KT 10SM CLR 11/01 A3019 RMK AO2 SLP224 T01060006
Loading
Personal Weather Stations






























Interactive Weather Map New forecast layout! Learn more

10-Day Weather Forecast

Advertisements
Track Severe Weather on mobile